Time;durP1;ratioP1;P1;durP2;ratioP2;P2;SDS_P1;SDS_P2;PMS_P1;PMS_P2;Temp;Humidity;BMP_temperature;BMP_pressure;BME280_temperature;BME280_humidity;BME280_pressure;Samples;Min_cycle;Max_cycle;Signal;HPM_P1;HPM_P2
2024/04/15 00:01:08;;;;;;;;;;;;;;;15.72;100.00;101514.59;5251198;27;1254;-73
2024/04/15 00:03:33;;;;;;;;;;;;;;;15.68;100.00;101508.84;5285061;26;1362;-73
2024/04/15 00:05:59;;;;;;;;;;;;;;;15.67;100.00;101509.91;5261594;27;1826;-73
2024/04/15 00:08:24;;;;;;;;;;;;;;;15.65;100.00;101499.31;5262191;27;1274;-74
2024/04/15 00:10:49;;;;;;;;;;;;;;;15.68;100.00;101491.78;5248922;27;1342;-73
2024/04/15 00:13:15;;;;;;;;;;;;;;;15.61;100.00;101484.63;5229793;27;1517;-73
2024/04/15 00:15:52;;;;;;;;;;;;;;;15.60;100.00;101487.56;5281334;26;1335;-73
2024/04/15 00:18:17;;;;;;;;;;;;;;;15.60;100.00;101477.59;5267754;27;1479;-72
2024/04/15 00:20:42;;;;;;;;;;;;;;;15.56;100.00;101479.13;5246447;27;1381;-72
2024/04/15 00:23:08;;;;;;;;;;;;;;;15.55;100.00;101476.66;5266498;27;1325;-73
2024/04/15 00:25:33;;;;;;;;;;;;;;;15.54;100.00;101472.28;5265132;26;1838;-72
2024/04/15 00:27:58;;;;;;;;;;;;;;;15.51;100.00;101468.16;5247283;27;1394;-72
2024/04/15 00:30:23;;;;;;;;;;;;;;;15.50;100.00;101466.53;5260264;27;1500;-72
2024/04/15 00:32:49;;;;;;;;;;;;;;;15.54;100.00;101456.88;5243179;27;1382;-73
2024/04/15 00:35:14;;;;;;;;;;;;;;;15.50;100.00;101444.94;5264515;27;1381;-73
2024/04/15 00:37:39;;;;;;;;;;;;;;;15.47;100.00;101437.28;5243423;27;1512;-73
2024/04/15 00:40:05;;;;;;;;;;;;;;;15.48;100.00;101439.75;5227045;27;1949;-72
2024/04/15 00:42:30;;;;;;;;;;;;;;;15.51;100.00;101434.94;5268637;27;1246;-73
2024/04/15 00:44:56;;;;;;;;;;;;;;;15.49;100.00;101427.06;5240440;27;1508;-72
2024/04/15 00:47:21;;;;;;;;;;;;;;;15.43;100.00;101428.00;5245468;27;1831;-73
2024/04/15 00:49:46;;;;;;;;;;;;;;;15.44;100.00;101418.84;5273189;26;1700;-72
2024/04/15 00:52:12;;;;;;;;;;;;;;;15.47;100.00;101421.06;5274377;26;1308;-73
2024/04/15 00:54:37;;;;;;;;;;;;;;;15.43;100.00;101412.59;5269047;27;1646;-73
2024/04/15 00:57:02;;;;;;;;;;;;;;;15.43;100.00;101414.47;5268318;27;1421;-73
2024/04/15 00:59:28;;;;;;;;;;;;;;;15.43;100.00;101407.19;5224563;27;1284;-72
2024/04/15 01:01:53;;;;;;;;;;;;;;;15.48;100.00;101399.22;5269768;27;1305;-73
2024/04/15 01:04:18;;;;;;;;;;;;;;;15.42;100.00;101392.03;5269682;27;1471;-73
2024/04/15 01:06:44;;;;;;;;;;;;;;;15.36;100.00;101390.25;5265225;27;1827;-73
2024/04/15 01:09:09;;;;;;;;;;;;;;;15.43;100.00;101382.88;5266801;27;1313;-72
2024/04/15 01:11:35;;;;;;;;;;;;;;;15.29;100.00;101376.88;5227163;27;1390;-72
2024/04/15 01:14:01;;;;;;;;;;;;;;;15.37;100.00;101381.13;5256451;27;1552;-73
2024/04/15 01:16:39;;;;;;;;;;;;;;;15.25;100.00;101381.09;5253091;27;1302;-73
2024/04/15 01:19:04;;;;;;;;;;;;;;;15.36;100.00;101367.84;5262619;27;1964;-72
2024/04/15 01:21:29;;;;;;;;;;;;;;;15.37;100.00;101372.19;5246922;27;1493;-72
2024/04/15 01:23:55;;;;;;;;;;;;;;;15.37;100.00;101366.78;5269550;26;1504;-73
2024/04/15 01:26:21;;;;;;;;;;;;;;;15.33;100.00;101362.91;5269787;27;1834;-73
2024/04/15 01:28:46;;;;;;;;;;;;;;;15.31;100.00;101365.84;5267713;27;1681;-73
2024/04/15 01:31:11;;;;;;;;;;;;;;;15.36;100.00;101365.13;5251026;27;1477;-73
2024/04/15 01:33:37;;;;;;;;;;;;;;;15.35;100.00;101364.31;5277464;27;1495;-73
2024/04/15 01:36:02;;;;;;;;;;;;;;;15.26;100.00;101358.44;5249587;27;1539;-73
2024/04/15 01:38:27;;;;;;;;;;;;;;;15.24;100.00;101360.53;5243920;27;1642;-73
2024/04/15 01:40:52;;;;;;;;;;;;;;;15.27;100.00;101351.97;5281638;26;1345;-73
2024/04/15 01:43:18;;;;;;;;;;;;;;;15.23;100.00;101352.69;5271548;27;1359;-74
2024/04/15 01:45:43;;;;;;;;;;;;;;;15.24;100.00;101352.44;5257562;27;1842;-73
2024/04/15 01:48:08;;;;;;;;;;;;;;;15.22;100.00;101359.97;5265495;27;1297;-72
2024/04/15 01:50:33;;;;;;;;;;;;;;;15.26;100.00;101360.31;5248315;27;1861;-73
2024/04/15 01:52:59;;;;;;;;;;;;;;;15.18;100.00;101360.69;5254090;27;1331;-73
2024/04/15 01:55:24;;;;;;;;;;;;;;;15.16;100.00;101351.97;5244680;27;1414;-73
2024/04/15 01:57:49;;;;;;;;;;;;;;;15.13;100.00;101347.88;5243316;27;1356;-73
2024/04/15 02:00:15;;;;;;;;;;;;;;;15.10;100.00;101348.34;5264561;27;1295;-73
2024/04/15 02:02:40;;;;;;;;;;;;;;;15.11;100.00;101341.88;5278215;27;1581;-73
2024/04/15 02:05:07;;;;;;;;;;;;;;;15.10;100.00;101342.94;5266812;27;1307;-73
2024/04/15 02:07:34;;;;;;;;;;;;;;;15.05;100.00;101346.34;5274389;27;1859;-73
2024/04/15 02:09:59;;;;;;;;;;;;;;;15.07;100.00;101338.00;5290155;26;1382;-73
2024/04/15 02:12:24;;;;;;;;;;;;;;;15.02;100.00;101333.28;5275852;27;1564;-73
2024/04/15 02:14:49;;;;;;;;;;;;;;;15.05;100.00;101323.91;5237643;27;1295;-73
2024/04/15 02:17:15;;;;;;;;;;;;;;;15.01;100.00;101322.72;5269657;26;1641;-72
2024/04/15 02:19:40;;;;;;;;;;;;;;;14.90;100.00;101317.09;5280528;26;1605;-73
2024/04/15 02:22:05;;;;;;;;;;;;;;;14.98;100.00;101315.09;5242677;27;1352;-73
2024/04/15 02:24:31;;;;;;;;;;;;;;;14.93;100.00;101300.44;5275390;27;1317;-73
2024/04/15 02:26:56;;;;;;;;;;;;;;;14.92;100.00;101298.78;5247424;27;1841;-73
2024/04/15 02:29:21;;;;;;;;;;;;;;;14.91;100.00;101299.03;5288078;27;1578;-73
2024/04/15 02:31:46;;;;;;;;;;;;;;;14.93;100.00;101296.91;5278911;27;1326;-73
2024/04/15 02:34:12;;;;;;;;;;;;;;;14.92;100.00;101290.69;5258825;27;1186;-72
2024/04/15 02:36:37;;;;;;;;;;;;;;;14.87;100.00;101289.75;5279494;27;1423;-73
2024/04/15 02:39:02;;;;;;;;;;;;;;;14.86;100.00;101288.09;5271806;27;1360;-73
2024/04/15 02:41:28;;;;;;;;;;;;;;;14.77;100.00;101288.44;5278485;27;1459;-73
2024/04/15 02:43:53;;;;;;;;;;;;;;;14.75;100.00;101284.34;5255241;27;1368;-72
2024/04/15 02:46:18;;;;;;;;;;;;;;;14.74;100.00;101282.69;5272739;27;1830;-73
2024/04/15 02:48:43;;;;;;;;;;;;;;;14.79;100.00;101271.22;5272681;27;1249;-73
2024/04/15 02:51:09;;;;;;;;;;;;;;;14.76;100.00;101272.50;5274066;27;1602;-73
2024/04/15 02:53:34;;;;;;;;;;;;;;;14.74;100.00;101274.59;5275053;27;1300;-73
2024/04/15 02:56:00;;;;;;;;;;;;;;;14.72;100.00;101268.59;5277194;27;1184;-73
2024/04/15 02:58:25;;;;;;;;;;;;;;;14.71;100.00;101272.34;5295695;26;1296;-73
2024/04/15 03:00:50;;;;;;;;;;;;;;;14.65;100.00;101271.41;5256868;27;1381;-73
2024/04/15 03:03:16;;;;;;;;;;;;;;;14.66;100.00;101269.53;5270901;27;1278;-72
2024/04/15 03:05:41;;;;;;;;;;;;;;;14.59;100.00;101267.75;5274633;27;1869;-73
2024/04/15 03:08:06;;;;;;;;;;;;;;;14.59;100.00;101275.00;5274816;27;1239;-73
2024/04/15 03:10:32;;;;;;;;;;;;;;;14.60;100.00;101258.56;5274637;27;1472;-73
2024/04/15 03:12:57;;;;;;;;;;;;;;;14.59;100.00;101256.97;5262106;27;1313;-73
2024/04/15 03:15:22;;;;;;;;;;;;;;;14.63;100.00;101261.91;5286436;27;1380;-73
2024/04/15 03:17:48;;;;;;;;;;;;;;;14.47;100.00;101253.41;5272241;27;1324;-73
2024/04/15 03:20:13;;;;;;;;;;;;;;;14.56;100.00;101245.78;5245174;27;1523;-73
2024/04/15 03:22:39;;;;;;;;;;;;;;;14.53;100.00;101240.84;5281521;27;1233;-73
2024/04/15 03:25:04;;;;;;;;;;;;;;;14.45;100.00;101239.34;5273519;27;1248;-73
2024/04/15 03:27:29;;;;;;;;;;;;;;;14.52;100.00;101241.91;5244824;27;1829;-73
2024/04/15 03:29:54;;;;;;;;;;;;;;;14.47;100.00;101236.41;5271876;27;1163;-73
2024/04/15 03:32:20;;;;;;;;;;;;;;;14.40;100.00;101231.94;5257792;27;1261;-73
2024/04/15 03:34:46;;;;;;;;;;;;;;;14.45;100.00;101222.34;5267906;27;1324;-73
2024/04/15 03:37:11;;;;;;;;;;;;;;;14.38;100.00;101217.84;5261525;27;1189;-73
2024/04/15 03:39:36;;;;;;;;;;;;;;;14.36;100.00;101213.75;5270766;26;1424;-73
2024/04/15 03:42:01;;;;;;;;;;;;;;;14.38;100.00;101207.03;5279113;27;1283;-72
2024/04/15 03:44:27;;;;;;;;;;;;;;;14.38;100.00;101203.53;5272462;27;1292;-73
2024/04/15 03:46:52;;;;;;;;;;;;;;;14.36;100.00;101197.56;5255688;27;1830;-73
2024/04/15 03:49:17;;;;;;;;;;;;;;;14.26;100.00;101198.13;5269017;27;1216;-73
2024/04/15 03:51:44;;;;;;;;;;;;;;;14.28;100.00;101197.91;5282113;26;1227;-73
2024/04/15 03:54:09;;;;;;;;;;;;;;;14.32;100.00;101194.50;5283065;27;1347;-73
2024/04/15 03:56:34;;;;;;;;;;;;;;;14.35;100.00;101191.34;5280244;27;1324;-74
2024/04/15 03:58:59;;;;;;;;;;;;;;;14.25;100.00;101188.38;5269587;27;1446;-73
2024/04/15 04:01:25;;;;;;;;;;;;;;;14.31;100.00;101187.47;5288265;27;1296;-73
2024/04/15 04:03:51;;;;;;;;;;;;;;;14.24;100.00;101174.09;5266812;27;1347;-73
2024/04/15 04:06:16;;;;;;;;;;;;;;;14.22;100.00;101178.06;5247447;27;1834;-73
2024/04/15 04:08:41;;;;;;;;;;;;;;;14.19;100.00;101173.97;5272716;27;1381;-73
2024/04/15 04:11:07;;;;;;;;;;;;;;;14.18;100.00;101164.22;5270572;27;1188;-73
2024/04/15 04:13:34;;;;;;;;;;;;;;;14.17;100.00;101159.06;5258322;26;1246;-73
2024/04/15 04:15:59;;;;;;;;;;;;;;;14.20;100.00;101162.13;5280266;27;1280;-73
2024/04/15 04:18:27;;;;;;;;;;;;;;;14.14;100.00;101157.66;5233500;27;1386;-73
2024/04/15 04:20:52;;;;;;;;;;;;;;;14.14;100.00;101156.84;5273687;27;1304;-73
2024/04/15 04:23:18;;;;;;;;;;;;;;;14.06;100.00;101156.13;5258323;27;1346;-74
2024/04/15 04:25:43;;;;;;;;;;;;;;;14.08;100.00;101147.81;5266426;26;1870;-73
2024/04/15 04:28:08;;;;;;;;;;;;;;;14.06;100.00;101147.22;5270939;27;1202;-73
2024/04/15 04:30:34;;;;;;;;;;;;;;;14.06;100.00;101139.13;5265849;27;1593;-73
2024/04/15 04:32:59;;;;;;;;;;;;;;;14.04;100.00;101141.22;5301601;26;1376;-73
2024/04/15 04:35:24;;;;;;;;;;;;;;;14.00;100.00;101140.88;5267573;26;1602;-73
2024/04/15 04:37:50;;;;;;;;;;;;;;;14.03;100.00;101139.59;5271719;27;1564;-74
2024/04/15 04:40:15;;;;;;;;;;;;;;;13.97;100.00;101137.81;5226062;27;1357;-73
2024/04/15 04:42:43;;;;;;;;;;;;;;;13.99;100.00;101125.75;5268973;27;1481;-73
2024/04/15 04:45:08;;;;;;;;;;;;;;;13.91;100.00;101118.00;5257416;27;1299;-74
2024/04/15 04:47:34;;;;;;;;;;;;;;;13.91;100.00;101109.94;5227677;27;1833;-74
2024/04/15 04:49:59;;;;;;;;;;;;;;;13.94;100.00;101114.00;5282473;27;1213;-73
2024/04/15 04:52:24;;;;;;;;;;;;;;;13.94;100.00;101117.56;5281845;27;1208;-73
2024/04/15 04:54:50;;;;;;;;;;;;;;;13.91;100.00;101120.72;5248149;27;1321;-73
2024/04/15 04:57:15;;;;;;;;;;;;;;;13.86;100.00;101116.00;5268458;27;1203;-73
2024/04/15 04:59:40;;;;;;;;;;;;;;;13.85;100.00;101108.13;5226745;27;1381;-73
2024/04/15 05:02:06;;;;;;;;;;;;;;;13.82;100.00;101103.22;5281918;27;1261;-73
2024/04/15 05:04:33;;;;;;;;;;;;;;;13.81;100.00;101105.09;5270325;26;1287;-74
2024/04/15 05:06:58;;;;;;;;;;;;;;;13.83;100.00;101102.97;5208430;27;1860;-74
2024/04/15 05:09:23;;;;;;;;;;;;;;;13.83;100.00;101104.88;5248687;27;1291;-73
2024/04/15 05:11:49;;;;;;;;;;;;;;;13.83;100.00;101102.16;5298615;26;1359;-73
2024/04/15 05:14:15;;;;;;;;;;;;;;;13.81;100.00;101096.19;5288353;27;1281;-73
2024/04/15 05:16:40;;;;;;;;;;;;;;;13.81;100.00;101107.78;5270323;27;1253;-73
2024/04/15 05:19:06;;;;;;;;;;;;;;;13.81;100.00;101093.50;5264642;27;1386;-73
2024/04/15 05:21:32;;;;;;;;;;;;;;;13.83;100.00;101100.28;5279205;26;1279;-74
2024/04/15 05:23:57;;;;;;;;;;;;;;;13.82;100.00;101090.56;5277729;27;1252;-73
2024/04/15 05:26:22;;;;;;;;;;;;;;;13.82;100.00;101087.88;5273553;27;1822;-73
2024/04/15 05:28:47;;;;;;;;;;;;;;;13.77;100.00;101087.72;5294088;27;1177;-74
2024/04/15 05:31:13;;;;;;;;;;;;;;;13.80;100.00;101070.28;5277759;27;1290;-73
2024/04/15 05:33:38;;;;;;;;;;;;;;;13.78;100.00;101080.50;5274980;27;1296;-74
2024/04/15 05:36:03;;;;;;;;;;;;;;;13.77;100.00;101087.72;5265059;27;1605;-73
2024/04/15 05:38:31;;;;;;;;;;;;;;;13.76;100.00;101083.41;5292835;27;1251;-73
2024/04/15 05:40:57;;;;;;;;;;;;;;;13.71;100.00;101078.69;5283408;27;1190;-74
2024/04/15 05:43:22;;;;;;;;;;;;;;;13.75;100.00;101070.16;5278021;27;1396;-74
2024/04/15 05:45:47;;;;;;;;;;;;;;;13.73;100.00;101073.06;5243513;27;1848;-74
2024/04/15 05:48:13;;;;;;;;;;;;;;;13.66;100.00;101075.09;5260697;27;1292;-73
2024/04/15 05:50:41;;;;;;;;;;;;;;;13.65;100.00;101074.25;5269506;27;1287;-73
2024/04/15 05:53:06;;;;;;;;;;;;;;;13.68;100.00;101065.69;5302874;27;1353;-74
2024/04/15 05:55:33;;;;;;;;;;;;;;;13.68;100.00;101062.19;5267619;27;1286;-74
2024/04/15 05:57:58;;;;;;;;;;;;;;;13.68;100.00;101059.50;5283877;27;1363;-74
2024/04/15 06:00:24;;;;;;;;;;;;;;;13.65;100.00;101051.88;5247041;27;1309;-73
2024/04/15 06:02:49;;;;;;;;;;;;;;;13.75;100.00;101054.81;5255302;27;1460;-74
2024/04/15 06:05:14;;;;;;;;;;;;;;;13.72;100.00;101058.78;5265785;27;1236;-73
2024/04/15 06:07:39;;;;;;;;;;;;;;;13.81;100.00;101055.75;5274374;26;1854;-73
2024/04/15 06:10:05;;;;;;;;;;;;;;;13.82;100.00;101058.22;5299440;26;1487;-74
2024/04/15 06:12:31;;;;;;;;;;;;;;;13.87;100.00;101049.44;5268139;27;1317;-72
2024/04/15 06:14:56;;;;;;;;;;;;;;;13.87;100.00;101052.13;5268980;27;1352;-74
2024/04/15 06:17:22;;;;;;;;;;;;;;;13.93;100.00;101050.38;5273417;27;1398;-73
2024/04/15 06:19:47;;;;;;;;;;;;;;;13.96;100.00;101048.03;5275518;27;1280;-74
2024/04/15 06:22:13;;;;;;;;;;;;;;;13.96;100.00;101042.63;5274226;27;1189;-73
2024/04/15 06:24:38;;;;;;;;;;;;;;;13.99;100.00;101041.34;5270972;27;1182;-73
2024/04/15 06:27:03;;;;;;;;;;;;;;;14.00;100.00;101032.19;5253432;27;1822;-73
2024/04/15 06:29:28;;;;;;;;;;;;;;;14.00;100.00;101021.41;5269777;27;1174;-73
2024/04/15 06:31:54;;;;;;;;;;;;;;;14.07;100.00;101027.50;5258431;27;1422;-73
2024/04/15 06:34:21;;;;;;;;;;;;;;;14.08;100.00;101021.06;5269925;27;1260;-74
2024/04/15 06:36:47;;;;;;;;;;;;;;;14.08;100.00;101024.56;5272278;27;1458;-74
2024/04/15 06:39:12;;;;;;;;;;;;;;;14.16;100.00;101031.50;5244963;27;1265;-74
2024/04/15 06:41:37;;;;;;;;;;;;;;;14.21;100.00;101018.13;5279053;27;1295;-74
2024/04/15 06:44:02;;;;;;;;;;;;;;;14.28;100.00;101022.56;5260870;27;2110;-73
2024/04/15 06:46:29;;;;;;;;;;;;;;;14.31;100.00;101014.00;5278502;27;1861;-73
2024/04/15 06:48:54;;;;;;;;;;;;;;;14.32;100.00;101013.75;5249543;27;1471;-74
2024/04/15 06:51:20;;;;;;;;;;;;;;;14.34;100.00;101003.56;5250673;27;1313;-73
2024/04/15 06:53:45;;;;;;;;;;;;;;;14.23;100.00;100999.81;5235580;27;1212;-73
2024/04/15 06:56:11;;;;;;;;;;;;;;;14.30;100.00;100986.22;5262972;27;1321;-73
2024/04/15 06:58:36;;;;;;;;;;;;;;;14.33;100.00;100983.03;5243278;27;1297;-74
2024/04/15 07:01:01;;;;;;;;;;;;;;;14.30;100.00;100978.13;5264233;27;1242;-74
2024/04/15 07:03:27;;;;;;;;;;;;;;;14.36;100.00;100982.56;5243176;27;1293;-73
2024/04/15 07:05:52;;;;;;;;;;;;;;;14.37;100.00;100964.47;5263435;27;1865;-74
2024/04/15 07:08:19;;;;;;;;;;;;;;;14.37;100.00;100961.78;5259706;27;1379;-74
2024/04/15 07:10:45;;;;;;;;;;;;;;;14.39;100.00;100955.09;5257010;27;1339;-73
2024/04/15 07:13:10;;;;;;;;;;;;;;;14.39;100.00;100957.00;5255401;27;1280;-73
2024/04/15 07:15:35;;;;;;;;;;;;;;;14.42;100.00;100943.84;5271443;27;1263;-73
2024/04/15 07:18:00;;;;;;;;;;;;;;;14.46;100.00;100948.75;5229638;27;1304;-74
2024/04/15 07:20:26;;;;;;;;;;;;;;;14.44;100.00;100935.50;5237278;27;1566;-74
2024/04/15 07:22:51;;;;;;;;;;;;;;;14.50;100.00;100931.03;5226534;27;1341;-73
2024/04/15 07:25:16;;;;;;;;;;;;;;;14.50;100.00;100933.72;5261508;27;1308;-73
2024/04/15 07:27:42;;;;;;;;;;;;;;;14.55;100.00;100929.25;5223472;27;1853;-73
2024/04/15 07:30:07;;;;;;;;;;;;;;;14.53;100.00;100931.38;5233338;27;1353;-74
2024/04/15 07:32:32;;;;;;;;;;;;;;;14.62;100.00;100931.00;5256155;27;1347;-74
2024/04/15 07:34:58;;;;;;;;;;;;;;;14.60;100.00;100917.72;5258240;27;1199;-73
2024/04/15 07:37:26;;;;;;;;;;;;;;;14.64;100.00;100910.81;5253611;27;1238;-73
2024/04/15 07:39:51;;;;;;;;;;;;;;;14.68;100.00;100901.19;5239746;27;1297;-74
2024/04/15 07:42:16;;;;;;;;;;;;;;;14.70;100.00;100903.66;5252450;27;1241;-74
2024/04/15 07:44:42;;;;;;;;;;;;;;;14.66;100.00;100894.38;5259545;27;1275;-74
2024/04/15 07:47:07;;;;;;;;;;;;;;;14.62;100.00;100894.03;5278284;27;1868;-74
2024/04/15 07:49:34;;;;;;;;;;;;;;;14.59;100.00;100884.53;5250219;27;1305;-73
2024/04/15 07:52:01;;;;;;;;;;;;;;;14.56;100.00;100876.94;5289269;27;1303;-73
2024/04/15 07:54:26;;;;;;;;;;;;;;;14.52;100.00;100874.94;5274503;27;1573;-73
2024/04/15 07:56:51;;;;;;;;;;;;;;;14.51;100.00;100870.63;5262177;27;1379;-73
2024/04/15 07:59:17;;;;;;;;;;;;;;;14.45;100.00;100861.59;5243181;27;1309;-73
2024/04/15 08:01:42;;;;;;;;;;;;;;;14.42;100.00;100854.78;5261692;27;1359;-73
2024/04/15 08:04:08;;;;;;;;;;;;;;;14.46;100.00;100851.63;5231910;27;1438;-74
2024/04/15 08:06:33;;;;;;;;;;;;;;;14.50;100.00;100841.97;5260005;27;1866;-73
2024/04/15 08:08:59;;;;;;;;;;;;;;;14.48;100.00;100849.50;5264755;27;1366;-74
2024/04/15 08:11:25;;;;;;;;;;;;;;;14.44;100.00;100843.75;5262237;27;1375;-73
2024/04/15 08:13:50;;;;;;;;;;;;;;;14.47;100.00;100840.56;5248927;27;1292;-73
2024/04/15 08:16:16;;;;;;;;;;;;;;;14.46;100.00;100830.88;5286450;27;1342;-73
2024/04/15 08:18:41;;;;;;;;;;;;;;;14.43;100.00;100828.66;5230440;27;1522;-73
2024/04/15 08:21:07;;;;;;;;;;;;;;;14.49;100.00;100833.09;5270759;27;1371;-73
2024/04/15 08:23:32;;;;;;;;;;;;;;;14.47;100.00;100828.97;5248914;27;1352;-74
2024/04/15 08:25:58;;;;;;;;;;;;;;;14.52;100.00;100816.41;5258213;27;1831;-73
2024/04/15 08:28:23;;;;;;;;;;;;;;;14.58;100.00;100814.63;5273061;27;1190;-74
2024/04/15 08:30:49;;;;;;;;;;;;;;;14.64;100.00;100831.72;5233869;27;1309;-73
2024/04/15 08:33:14;;;;;;;;;;;;;;;14.58;100.00;100815.44;5258211;27;1269;-73
2024/04/15 08:35:39;;;;;;;;;;;;;;;14.54;100.00;100805.38;5236639;27;1349;-73
2024/04/15 08:38:05;;;;;;;;;;;;;;;14.54;100.00;100792.69;5274589;27;1357;-72
2024/04/15 08:40:30;;;;;;;;;;;;;;;14.55;100.00;100785.44;5266355;27;1309;-73
2024/04/15 08:42:56;;;;;;;;;;;;;;;14.52;100.00;100785.88;5239790;27;1504;-74
2024/04/15 08:45:23;;;;;;;;;;;;;;;14.49;100.00;100773.72;5281261;27;1185;-73
2024/04/15 08:47:52;;;;;;;;;;;;;;;14.49;100.00;100765.63;5235481;27;2124;-74
2024/04/15 08:50:20;;;;;;;;;;;;;;;14.57;100.00;100767.91;5276293;27;1378;-73
2024/04/15 08:52:49;;;;;;;;;;;;;;;14.55;100.00;100758.44;5247466;27;1489;-74
2024/04/15 08:55:14;;;;;;;;;;;;;;;14.55;100.00;100755.75;5265838;27;1256;-73
2024/04/15 08:57:39;;;;;;;;;;;;;;;14.53;100.00;100750.59;5253594;27;1650;-74
2024/04/15 09:00:07;;;;;;;;;;;;;;;14.53;100.00;100745.19;5271416;27;1183;-73
2024/04/15 09:02:33;;;;;;;;;;;;;;;14.58;100.00;100737.16;5279508;27;1337;-73
2024/04/15 09:04:58;;;;;;;;;;;;;;;14.59;100.00;100744.22;5264370;27;1257;-73
2024/04/15 09:07:23;;;;;;;;;;;;;;;14.79;100.00;100723.22;5292073;26;1830;-71
2024/04/15 09:09:49;;;;;;;;;;;;;;;15.03;100.00;100727.31;5279984;27;1280;-69
2024/04/15 09:12:14;;;;;;;;;;;;;;;14.91;100.00;100713.13;5267516;27;1284;-72
2024/04/15 09:14:39;;;;;;;;;;;;;;;14.87;100.00;100715.47;5273700;27;1296;-72
2024/04/15 09:17:05;;;;;;;;;;;;;;;14.83;100.00;100708.97;5284167;27;1748;-72
2024/04/15 09:19:31;;;;;;;;;;;;;;;14.86;100.00;100692.28;5242942;27;1448;-72
2024/04/15 09:21:57;;;;;;;;;;;;;;;14.77;100.00;100699.13;5268274;27;1398;-72
2024/04/15 09:24:24;;;;;;;;;;;;;;;14.84;100.00;100690.88;5242614;27;1476;-72
2024/04/15 09:26:50;;;;;;;;;;;;;;;14.71;100.00;100679.38;5284713;26;1833;-72
2024/04/15 09:29:15;;;;;;;;;;;;;;;14.72;100.00;100667.50;5293090;27;1252;-72
2024/04/15 09:31:40;;;;;;;;;;;;;;;14.75;100.00;100666.19;5262260;27;1242;-72
2024/04/15 09:34:06;;;;;;;;;;;;;;;14.75;100.00;100669.69;5266287;27;1358;-72
2024/04/15 09:36:34;;;;;;;;;;;;;;;14.76;100.00;100657.84;5274780;27;1274;-72
2024/04/15 09:39:00;;;;;;;;;;;;;;;14.79;100.00;100659.25;5276416;26;1310;-72
2024/04/15 09:41:25;;;;;;;;;;;;;;;14.85;100.00;100643.94;5262896;27;1354;-71
2024/04/15 09:43:50;;;;;;;;;;;;;;;14.93;100.00;100628.13;5275914;27;1385;-72
2024/04/15 09:46:15;;;;;;;;;;;;;;;14.93;100.00;100617.31;5281614;27;1835;-72
2024/04/15 09:48:41;;;;;;;;;;;;;;;15.05;100.00;100600.16;5238077;27;1305;-71
2024/04/15 09:51:10;;;;;;;;;;;;;;;15.13;100.00;100611.34;5250072;27;1296;-72
2024/04/15 09:53:38;;;;;;;;;;;;;;;15.12;100.00;100598.09;5235419;27;1387;-72
2024/04/15 09:56:05;;;;;;;;;;;;;;;15.11;100.00;100591.88;5262181;27;1336;-71
2024/04/15 09:58:30;;;;;;;;;;;;;;;15.08;100.00;100578.03;5250089;27;1261;-72
2024/04/15 10:00:56;;;;;;;;;;;;;;;15.10;100.00;100584.03;5260845;27;1292;-72
2024/04/15 10:03:21;;;;;;;;;;;;;;;15.04;100.00;100572.34;5255366;27;1359;-72
2024/04/15 10:05:46;;;;;;;;;;;;;;;15.04;100.00;100558.84;5243029;27;1309;-71
2024/04/15 10:08:13;;;;;;;;;;;;;;;15.06;100.00;100556.69;5247275;27;1874;-72
2024/04/15 10:10:41;;;;;;;;;;;;;;;15.03;100.00;100545.59;5241348;27;1333;-71
2024/04/15 10:13:07;;;;;;;;;;;;;;;15.06;100.00;100529.69;5239677;27;1360;-71
2024/04/15 10:15:38;;;;;;;;;;;;;;;15.07;100.00;100515.13;5281445;27;1441;-72
2024/04/15 10:18:10;;;;;;;;;;;;;;;15.08;100.00;100519.47;5266412;27;1153;-72
2024/04/15 10:20:35;;;;;;;;;;;;;;;15.09;100.00;100520.28;5268293;27;1397;-71
2024/04/15 10:23:04;;;;;;;;;;;;;;;15.05;100.00;100503.78;5272722;27;1110;-72
2024/04/15 10:25:30;;;;;;;;;;;;;;;15.08;100.00;100491.63;5287157;27;1344;-71
2024/04/15 10:27:56;;;;;;;;;;;;;;;14.35;100.00;100479.19;5244689;27;1932;-78
2024/04/15 10:30:21;;;;;;;;;;;;;;;13.08;100.00;100476.97;5284428;26;1285;-75
2024/04/15 10:32:47;;;;;;;;;;;;;;;13.42;100.00;100452.81;5255936;27;1345;-75
2024/04/15 10:35:20;;;;;;;;;;;;;;;13.25;100.00;100438.50;5238636;27;1556;-75
2024/04/15 10:37:45;;;;;;;;;;;;;;;14.00;100.00;100436.38;5231080;27;1283;-71
2024/04/15 10:40:10;;;;;;;;;;;;;;;14.55;100.00;100421.97;5264669;27;1296;-72
2024/04/15 10:42:35;;;;;;;;;;;;;;;14.83;100.00;100422.84;5258083;27;1398;-72
2024/04/15 10:45:01;;;;;;;;;;;;;;;14.95;100.00;100418.09;5263024;27;1396;-72
2024/04/15 10:47:26;;;;;;;;;;;;;;;15.00;100.00;100413.81;5255399;27;1830;-72
2024/04/15 10:49:51;;;;;;;;;;;;;;;15.07;100.00;100411.72;5226110;27;1555;-71
2024/04/15 10:52:18;;;;;;;;;;;;;;;15.04;100.00;100398.69;5271058;27;1565;-72
2024/04/15 10:54:44;;;;;;;;;;;;;;;15.05;100.00;100390.38;5264132;27;1558;-72
2024/04/15 10:57:09;;;;;;;;;;;;;;;15.05;100.00;100392.25;5273866;27;1304;-72
2024/04/15 10:59:34;;;;;;;;;;;;;;;15.04;100.00;100383.34;5269914;27;1297;-72
2024/04/15 11:01:59;;;;;;;;;;;;;;;15.03;100.00;100372.78;5268148;27;1302;-71
2024/04/15 11:04:25;;;;;;;;;;;;;;;15.01;100.00;100374.91;5260741;27;1403;-72
2024/04/15 11:06:50;;;;;;;;;;;;;;;14.94;100.00;100359.75;5247901;27;1869;-72
2024/04/15 11:09:16;;;;;;;;;;;;;;;14.92;100.00;100342.22;5279941;27;1310;-72
2024/04/15 11:11:41;;;;;;;;;;;;;;;14.92;100.00;100334.91;5270956;27;1383;-72
2024/04/15 11:14:10;;;;;;;;;;;;;;;14.90;100.00;100315.44;5272166;27;1386;-71
2024/04/15 11:16:35;;;;;;;;;;;;;;;14.92;100.00;100307.91;5230448;27;1387;-71
2024/04/15 11:19:06;;;;;;;;;;;;;;;14.89;100.00;100310.31;5261824;27;1609;-72
2024/04/15 11:21:32;;;;;;;;;;;;;;;14.91;100.00;100290.06;5269700;27;1372;-72
2024/04/15 11:23:57;;;;;;;;;;;;;;;14.93;100.00;100273.63;5265802;27;1496;-72
2024/04/15 11:26:22;;;;;;;;;;;;;;;14.99;100.00;100271.78;5267844;27;1838;-72
2024/04/15 11:28:48;;;;;;;;;;;;;;;14.97;100.00;100271.22;5272332;27;1434;-72
2024/04/15 11:31:13;;;;;;;;;;;;;;;14.95;100.00;100268.78;5268973;27;1559;-72
2024/04/15 11:33:38;;;;;;;;;;;;;;;14.91;100.00;100278.47;5283474;26;1571;-72
2024/04/15 11:36:04;;;;;;;;;;;;;;;14.88;100.00;100279.00;5234548;27;1460;-71
2024/04/15 11:38:29;;;;;;;;;;;;;;;14.83;100.00;100279.78;5262687;27;1448;-72
2024/04/15 11:40:54;;;;;;;;;;;;;;;14.72;100.00;100288.84;5266866;27;1448;-71
2024/04/15 11:43:19;;;;;;;;;;;;;;;14.71;100.00;100284.53;5265555;27;1382;-71
2024/04/15 11:45:48;;;;;;;;;;;;;;;14.67;100.00;100272.63;5255649;27;1355;-72
2024/04/15 11:48:14;;;;;;;;;;;;;;;14.64;100.00;100276.66;5288746;26;1846;-72
2024/04/15 11:50:41;;;;;;;;;;;;;;;14.65;100.00;100267.47;5261975;27;1336;-71
2024/04/15 11:53:07;;;;;;;;;;;;;;;14.62;100.00;100275.28;5283769;26;1465;-72
2024/04/15 11:55:33;;;;;;;;;;;;;;;13.75;100.00;100270.59;5269582;27;1189;-69
2024/04/15 11:57:58;;;;;;;;;;;;;;;13.68;100.00;100267.28;5275693;27;1309;-69
2024/04/15 12:00:23;;;;;;;;;;;;;;;13.69;100.00;100260.84;5279795;27;1347;-69
2024/04/15 12:02:49;;;;;;;;;;;;;;;13.67;100.00;100249.47;5295286;27;1141;-69
2024/04/15 12:05:14;;;;;;;;;;;;;;;13.75;100.00;100232.88;5273330;27;1511;-69
2024/04/15 12:07:40;;;;;;;;;;;;;;;13.91;100.00;100225.78;5261977;27;1835;-69
2024/04/15 12:10:05;;;;;;;;;;;;;;;13.95;100.00;100231.47;5276369;27;1385;-68
2024/04/15 12:12:30;;;;;;;;;;;;;;;13.85;100.00;100226.78;5258339;26;1352;-69
2024/04/15 12:14:56;;;;;;;;;;;;;;;13.86;100.00;100210.34;5279787;26;1538;-69
2024/04/15 12:17:21;;;;;;;;;;;;;;;13.89;100.00;100196.41;5248406;27;1386;-68
2024/04/15 12:19:46;;;;;;;;;;;;;;;14.04;100.00;100186.81;5266550;27;1325;-69
2024/04/15 12:22:12;;;;;;;;;;;;;;;14.08;100.00;100177.16;5273129;26;1466;-69
2024/04/15 12:24:37;;;;;;;;;;;;;;;14.33;100.00;100156.88;5238860;27;1339;-69
2024/04/15 12:27:02;;;;;;;;;;;;;;;14.62;100.00;100143.88;5249234;27;1831;-70